Time;durP1;ratioP1;P1;durP2;ratioP2;P2;SDS_P1;SDS_P2;PMS_P1;PMS_P2;Temp;Humidity;BMP_temperature;BMP_pressure;BME280_temperature;BME280_humidity;BME280_pressure;Samples;Min_cycle;Max_cycle;Signal;HPM_P1;HPM_P2
2021/09/04 00:02:05;;;;;;;9.07;6.05;;;;;;;11.39;88.60;93375.31;5052712;28;20437;-79
2021/09/04 00:04:32;;;;;;;10.30;6.45;;;;;;;11.36;88.96;93376.53;5052632;28;20430;-79
2021/09/04 00:06:59;;;;;;;9.05;6.35;;;;;;;11.30;89.02;93379.16;5052108;28;20053;-80
2021/09/04 00:09:26;;;;;;;9.25;5.53;;;;;;;11.29;88.95;93386.09;5052251;28;20091;-80
2021/09/04 00:11:54;;;;;;;9.27;5.78;;;;;;;11.25;89.56;93384.16;5052217;28;20053;-80
2021/09/04 00:14:21;;;;;;;7.85;5.90;;;;;;;11.06;89.84;93371.22;5052412;28;20064;-80
2021/09/04 00:16:47;;;;;;;11.40;6.78;;;;;;;11.15;89.57;93380.25;5052235;28;20052;-79
2021/09/04 00:19:14;;;;;;;8.48;6.65;;;;;;;11.15;89.88;93389.75;5052322;28;20551;-78
2021/09/04 00:21:41;;;;;;;8.52;6.03;;;;;;;11.15;90.37;93389.75;5052348;28;20056;-78
2021/09/04 00:24:08;;;;;;;7.45;6.38;;;;;;;11.02;90.69;93373.41;5052439;28;20041;-78
2021/09/04 00:26:35;;;;;;;10.80;6.15;;;;;;;11.09;90.75;93388.78;5052039;28;20045;-78
2021/09/04 00:29:04;;;;;;;10.32;6.25;;;;;;;11.08;89.73;93376.94;5051966;28;20045;-78
2021/09/04 00:31:30;;;;;;;8.77;6.18;;;;;;;11.17;90.16;93380.03;5051869;28;20048;-79
2021/09/04 00:33:57;;;;;;;10.52;6.82;;;;;;;11.00;90.22;93361.75;5051735;28;20049;-78
2021/09/04 00:36:24;;;;;;;9.38;6.90;;;;;;;11.15;90.29;93387.97;5051813;28;20554;-78
2021/09/04 00:38:51;;;;;;;8.13;6.57;;;;;;;11.17;90.22;93393.69;5052018;28;20056;-79
2021/09/04 00:41:22;;;;;;;8.65;6.82;;;;;;;11.19;89.60;93390.91;5051615;28;20513;-78
2021/09/04 00:43:49;;;;;;;7.93;6.68;;;;;;;11.12;90.51;93385.03;5052072;28;20144;-78
2021/09/04 00:46:17;;;;;;;10.07;7.00;;;;;;;11.01;90.64;93368.50;5051486;28;20061;-78
2021/09/04 00:48:44;;;;;;;11.43;7.88;;;;;;;10.76;91.00;93340.97;5051760;28;20111;-78
2021/09/04 00:51:11;;;;;;;9.23;7.00;;;;;;;10.98;90.92;93371.47;5051830;28;20057;-78
2021/09/04 00:53:38;;;;;;;10.68;7.47;;;;;;;10.95;91.28;93372.69;5051643;28;20110;-78
2021/09/04 00:56:05;;;;;;;9.45;7.25;;;;;;;10.99;90.56;93371.28;5051579;28;20053;-78
2021/09/04 00:58:32;;;;;;;10.65;6.20;;;;;;;11.07;89.90;93371.00;5051459;28;20095;-79
2021/09/04 01:00:59;;;;;;;12.55;6.97;;;;;;;11.00;89.70;93367.69;5051204;28;20174;-78
2021/09/04 01:03:27;;;;;;;7.35;6.43;;;;;;;11.01;89.25;93365.94;5051386;28;20144;-78
2021/09/04 01:05:54;;;;;;;8.77;6.38;;;;;;;10.98;89.60;93362.00;5051541;28;20472;-78
2021/09/04 01:08:22;;;;;;;6.78;5.68;;;;;;;10.90;89.82;93362.22;5051442;28;20048;-80
2021/09/04 01:10:51;;;;;;;10.48;6.90;;;;;;;10.61;90.41;93330.97;5051210;28;20417;-79
2021/09/04 01:13:18;;;;;;;9.10;6.00;;;;;;;10.76;91.02;93358.94;5051052;28;20095;-80
2021/09/04 01:15:45;;;;;;;8.27;6.40;;;;;;;10.71;91.05;93358.78;5051581;28;20464;-79
2021/09/04 01:18:12;;;;;;;9.20;6.57;;;;;;;10.71;91.03;93353.63;5051332;28;20048;-78
2021/09/04 01:20:40;;;;;;;7.88;6.40;;;;;;;10.72;90.87;93345.72;5051093;28;20107;-78
2021/09/04 01:23:07;;;;;;;8.23;5.57;;;;;;;10.77;91.03;93342.53;5051267;28;20048;-79
2021/09/04 01:25:35;;;;;;;7.65;6.18;;;;;;;10.79;90.74;93336.19;5050975;28;20049;-78
2021/09/04 01:28:04;;;;;;;8.00;6.18;;;;;;;10.76;90.59;93334.06;5050949;28;20045;-78
2021/09/04 01:30:32;;;;;;;7.32;5.93;;;;;;;10.83;90.09;93329.66;5051067;28;20048;-79
2021/09/04 01:32:58;;;;;;;8.23;6.15;;;;;;;10.84;89.20;93335.59;5051044;28;20076;-78
2021/09/04 01:35:27;;;;;;;8.48;6.40;;;;;;;10.83;89.09;93334.00;5050919;28;20509;-78
2021/09/04 01:37:54;;;;;;;7.93;6.43;;;;;;;10.82;88.37;93338.34;5050634;28;20056;-79
2021/09/04 01:40:21;;;;;;;7.25;5.68;;;;;;;10.79;88.12;93330.28;5050925;28;20106;-78
2021/09/04 01:42:50;;;;;;;8.45;5.65;;;;;;;10.75;88.50;93329.91;5051052;28;20099;-79
2021/09/04 01:45:19;;;;;;;8.45;5.80;;;;;;;10.65;88.89;93317.50;5050724;28;20049;-78
2021/09/04 01:47:46;;;;;;;8.90;6.10;;;;;;;10.49;89.33;93310.28;5050928;28;20401;-79
2021/09/04 01:50:14;;;;;;;7.53;5.30;;;;;;;10.51;89.17;93314.22;5050848;28;20401;-79
2021/09/04 01:52:42;;;;;;;7.53;6.38;;;;;;;10.56;88.97;93321.31;5050412;28;20049;-79
2021/09/04 01:55:11;;;;;;;7.25;5.95;;;;;;;10.26;89.58;93298.72;5050511;28;20052;-79
2021/09/04 01:57:38;;;;;;;7.88;6.10;;;;;;;10.17;90.10;93300.75;5050585;28;20053;-79
2021/09/04 02:00:07;;;;;;;10.32;6.28;;;;;;;10.35;89.81;93330.88;5049592;28;20812;-79
2021/09/04 02:02:35;;;;;;;7.88;6.20;;;;;;;10.18;91.29;93307.44;5050713;28;20057;-79
2021/09/04 02:05:02;;;;;;;8.30;6.03;;;;;;;10.21;92.36;93324.22;5050558;28;20056;-79
2021/09/04 02:07:30;;;;;;;7.40;6.40;;;;;;;10.16;92.46;93327.41;5050245;28;20045;-79
2021/09/04 02:09:57;;;;;;;7.55;6.18;;;;;;;10.13;92.52;93323.47;5049991;28;20045;-80
2021/09/04 02:12:24;;;;;;;8.10;6.40;;;;;;;9.98;92.85;93302.41;5050189;28;20049;-79
2021/09/04 02:14:51;;;;;;;9.18;7.00;;;;;;;10.07;93.33;93313.22;5050221;28;20056;-79
2021/09/04 02:17:18;;;;;;;7.10;6.40;;;;;;;10.03;93.42;93305.94;5050269;28;20045;-79
2021/09/04 02:19:46;;;;;;;9.13;6.13;;;;;;;9.98;93.75;93305.75;5050058;28;20057;-79
2021/09/04 02:22:32;;;;;;;8.43;7.00;;;;;;;10.05;93.67;93307.50;5049936;28;20049;-78
2021/09/04 02:24:59;;;;;;;7.22;6.20;;;;;;;10.08;93.47;93312.22;5050094;28;20051;-79
2021/09/04 02:27:26;;;;;;;9.40;6.38;;;;;;;10.05;93.55;93303.19;5049873;28;20422;-79
2021/09/04 02:29:53;;;;;;;8.10;6.47;;;;;;;10.04;94.02;93301.56;5050074;28;20094;-79
2021/09/04 02:32:19;;;;;;;7.68;6.72;;;;;;;10.11;93.11;93301.56;5050062;28;20076;-79
2021/09/04 02:34:48;;;;;;;7.47;5.88;;;;;;;10.16;92.81;93299.97;5049685;28;20433;-79
2021/09/04 02:37:14;;;;;;;7.85;6.38;;;;;;;10.00;93.12;93272.97;5049731;28;20057;-79
2021/09/04 02:39:42;;;;;;;8.50;6.57;;;;;;;10.11;93.41;93291.28;5049405;28;20045;-79
2021/09/04 02:42:09;;;;;;;8.05;6.78;;;;;;;10.13;92.65;93289.28;5049595;28;20053;-78
2021/09/04 02:44:36;;;;;;;9.10;6.70;;;;;;;10.10;93.02;93290.50;5049864;28;20044;-78
2021/09/04 02:47:03;;;;;;;8.35;6.68;;;;;;;9.92;92.54;93259.59;5049525;28;20059;-78
2021/09/04 02:49:30;;;;;;;7.60;5.93;;;;;;;10.09;91.67;93268.38;5049802;28;20052;-78
2021/09/04 02:51:58;;;;;;;8.20;6.55;;;;;;;10.06;91.66;93271.38;5049541;28;20055;-79
2021/09/04 02:54:25;;;;;;;8.27;6.43;;;;;;;9.99;92.33;93273.16;5049409;28;20045;-78
2021/09/04 02:56:51;;;;;;;7.43;6.63;;;;;;;9.99;91.69;93268.84;5049343;28;20052;-78
2021/09/04 02:59:18;;;;;;;8.00;6.50;;;;;;;9.98;91.71;93263.91;5049536;28;20091;-78
2021/09/04 03:01:45;;;;;;;8.82;6.47;;;;;;;9.95;91.79;93270.22;5049540;28;20083;-79
2021/09/04 03:04:12;;;;;;;9.90;6.35;;;;;;;9.93;91.72;93274.78;5049343;28;20596;-79
2021/09/04 03:06:39;;;;;;;7.35;5.80;;;;;;;9.93;91.90;93268.84;5049110;28;20053;-79
2021/09/04 03:09:07;;;;;;;8.52;6.13;;;;;;;9.86;92.50;93261.22;5049246;28;20048;-79
2021/09/04 03:11:34;;;;;;;7.13;5.60;;;;;;;9.53;92.11;93215.94;5048280;28;20045;-79
2021/09/04 03:14:01;;;;;;;8.98;6.85;;;;;;;9.84;92.76;93273.44;5049400;28;20049;-80
2021/09/04 03:16:28;;;;;;;7.50;6.10;;;;;;;9.82;92.52;93267.72;5049137;28;20528;-80
2021/09/04 03:18:55;;;;;;;7.13;6.03;;;;;;;9.81;92.71;93261.78;5049039;28;20167;-79
2021/09/04 03:21:22;;;;;;;9.13;7.13;;;;;;;9.62;93.90;93250.63;5049241;28;20048;-79
2021/09/04 03:23:49;;;;;;;8.63;6.68;;;;;;;9.66;94.91;93263.81;5048991;28;20052;-79
2021/09/04 03:26:17;;;;;;;7.72;6.40;;;;;;;9.65;94.93;93278.44;5049247;28;20773;-79
2021/09/04 03:28:44;;;;;;;8.93;6.97;;;;;;;9.62;94.90;93281.38;5049273;28;20041;-79
2021/09/04 03:31:11;;;;;;;9.88;7.43;;;;;;;9.51;95.17;93271.75;5048996;28;20049;-79
2021/09/04 03:33:37;;;;;;;9.70;7.40;;;;;;;9.56;95.20;93280.44;5048889;28;20041;-79
2021/09/04 03:36:05;;;;;;;11.48;6.85;;;;;;;9.52;94.52;93270.75;5049242;28;20490;-80
2021/09/04 03:38:32;;;;;;;10.00;6.82;;;;;;;9.57;94.83;93287.13;5049054;28;20185;-80
2021/09/04 03:40:59;;;;;;;7.50;6.60;;;;;;;9.49;95.16;93277.88;5048627;28;20045;-79
2021/09/04 03:43:27;;;;;;;9.73;6.70;;;;;;;9.48;95.11;93293.44;5048899;28;20490;-80
2021/09/04 03:45:54;;;;;;;9.20;6.53;;;;;;;9.40;95.77;93297.00;5048947;28;20053;-79
2021/09/04 03:48:20;;;;;;;7.20;6.32;;;;;;;9.39;95.68;93305.69;5049004;28;20126;-79
2021/09/04 03:50:47;;;;;;;8.57;6.32;;;;;;;9.34;95.90;93306.31;5048690;28;20095;-79
2021/09/04 03:53:14;;;;;;;12.98;6.70;;;;;;;9.35;95.65;93302.75;5049078;28;20073;-79
2021/09/04 03:55:41;;;;;;;13.57;7.03;;;;;;;9.19;96.55;93280.09;5048620;28;20049;-79
2021/09/04 03:58:08;;;;;;;10.50;7.35;;;;;;;9.10;96.89;93284.63;5048994;28;20041;-80
2021/09/04 04:00:36;;;;;;;9.95;7.20;;;;;;;9.18;97.54;93296.47;5048680;28;20509;-79
2021/09/04 04:03:03;;;;;;;10.80;7.30;;;;;;;9.15;98.36;93299.41;5048698;28;20494;-79
2021/09/04 04:05:30;;;;;;;12.98;7.45;;;;;;;9.09;99.16;93291.53;5057911;28;20095;-80
2021/09/04 04:07:57;;;;;;;12.75;7.60;;;;;;;9.15;99.02;93284.84;5057470;28;20505;-79
2021/09/04 04:10:23;;;;;;;8.85;7.50;;;;;;;9.20;100.00;93289.34;5054465;28;20049;-81
2021/09/04 04:12:50;;;;;;;9.88;7.57;;;;;;;9.31;99.28;93291.31;5057209;28;20486;-80
2021/09/04 04:15:17;;;;;;;10.63;8.20;;;;;;;9.20;99.71;93286.78;5058483;28;20448;-80
2021/09/04 04:17:45;;;;;;;11.63;8.13;;;;;;;9.09;100.00;93273.59;5059112;28;20049;-80
2021/09/04 04:20:13;;;;;;;11.80;8.40;;;;;;;9.27;100.00;93289.34;5057198;28;20494;-80
2021/09/04 04:22:40;;;;;;;14.15;8.48;;;;;;;9.39;99.45;93298.00;5057088;28;20044;-80
2021/09/04 04:25:08;;;;;;;16.17;9.30;;;;;;;9.38;99.29;93280.25;5074738;28;20045;-80
2021/09/04 04:27:38;;;;;;;17.77;10.25;;;;;;;9.53;99.31;93313.38;5070355;28;20055;-80
2021/09/04 04:30:06;;;;;;;21.50;10.48;;;;;;;9.63;99.14;93317.09;5067629;28;20613;-80
2021/09/04 04:32:33;;;;;;;15.93;9.00;;;;;;;9.30;98.72;93261.53;5064293;28;20041;-80
2021/09/04 04:35:01;;;;;;;11.93;7.45;;;;;;;9.72;97.96;93319.47;5051844;28;20041;-80
2021/09/04 04:37:28;;;;;;;12.90;7.68;;;;;;;9.54;98.34;93274.69;5052039;28;20048;-79
2021/09/04 04:39:55;;;;;;;10.43;7.38;;;;;;;9.91;97.17;93305.00;5052412;28;20136;-79
2021/09/04 04:42:22;;;;;;;12.48;7.78;;;;;;;9.94;97.37;93298.66;5082247;28;20048;-79
2021/09/04 04:44:49;;;;;;;13.73;7.93;;;;;;;10.05;96.89;93305.75;5091916;28;20048;-80
2021/09/04 04:47:16;;;;;;;13.57;7.80;;;;;;;10.03;96.39;93290.53;5092209;28;20048;-79
2021/09/04 04:49:43;;;;;;;25.77;9.57;;;;;;;10.27;95.65;93313.13;5091896;28;20505;-80
2021/09/04 04:52:11;;;;;;;17.42;8.40;;;;;;;10.03;95.74;93259.75;5091816;28;20489;-79
2021/09/04 04:54:37;;;;;;;17.77;8.25;;;;;;;10.46;95.15;93313.28;5082050;28;20048;-78
2021/09/04 04:57:06;;;;;;;16.17;9.40;;;;;;;10.55;94.83;93314.59;5089311;28;20036;-79
2021/09/04 04:59:33;;;;;;;23.38;11.80;;;;;;;10.64;94.96;93315.94;5072076;28;20524;-80
2021/09/04 05:02:00;;;;;;;13.50;8.20;;;;;;;10.56;94.30;93283.56;5071439;28;20084;-79
2021/09/04 05:04:27;;;;;;;10.25;7.07;;;;;;;10.71;93.81;93294.56;5071568;28;20055;-80
2021/09/04 05:06:54;;;;;;;13.13;7.13;;;;;;;10.87;94.01;93312.03;5071632;28;20060;-79
2021/09/04 05:09:22;;;;;;;12.13;7.38;;;;;;;10.90;94.07;93306.47;5071866;28;20049;-80
2021/09/04 05:11:49;;;;;;;17.77;8.43;;;;;;;10.81;93.28;93282.81;5071549;28;20051;-80
2021/09/04 05:14:16;;;;;;;10.75;7.68;;;;;;;10.51;92.86;93237.19;5071254;28;20825;-81
2021/09/04 05:16:43;;;;;;;14.82;7.95;;;;;;;10.81;93.54;93284.59;5071400;28;20040;-84
2021/09/04 05:19:10;;;;;;;12.63;6.70;;;;;;;10.65;92.83;93255.84;5085941;28;20075;-80
2021/09/04 05:21:37;;;;;;;17.30;7.47;;;;;;;10.84;92.81;93281.63;5091195;28;20071;-80
2021/09/04 05:24:04;;;;;;;12.38;8.25;;;;;;;11.11;93.24;93319.19;5091141;28;20048;-80
2021/09/04 05:26:32;;;;;;;10.50;8.55;;;;;;;10.86;92.63;93271.91;5091068;28;20044;-80
2021/09/04 05:28:59;;;;;;;14.20;8.48;;;;;;;11.30;91.76;93313.06;5091195;28;20044;-80
2021/09/04 05:31:26;;;;;;;12.82;7.75;;;;;;;11.36;91.75;93304.50;5076270;28;20052;-80
2021/09/04 05:33:53;;;;;;;17.42;8.35;;;;;;;11.38;91.71;93295.81;5047810;28;20053;-80
2021/09/04 05:36:20;;;;;;;12.32;8.82;;;;;;;11.57;92.25;93305.13;5050644;28;20059;-80
2021/09/04 05:38:47;;;;;;;13.52;8.02;;;;;;;11.80;90.57;93324.28;5051343;28;20167;-80
2021/09/04 05:41:14;;;;;;;14.00;8.77;;;;;;;11.73;90.21;93285.78;5050568;28;20045;-80
2021/09/04 05:43:42;;;;;;;10.63;7.45;;;;;;;11.95;89.00;93303.34;5050606;28;20053;-80
2021/09/04 05:46:09;;;;;;;11.75;7.28;;;;;;;12.27;89.01;93328.19;5050331;28;20588;-80
2021/09/04 05:48:36;;;;;;;13.88;7.50;;;;;;;12.24;87.84;93303.66;5050735;28;20745;-80
2021/09/04 05:51:03;;;;;;;10.68;7.97;;;;;;;12.57;88.46;93329.97;5050810;28;20053;-80
2021/09/04 05:53:29;;;;;;;10.50;7.07;;;;;;;12.69;87.15;93340.34;5051334;28;20060;-81
2021/09/04 05:55:56;;;;;;;12.35;7.82;;;;;;;12.73;88.51;93333.72;5050746;28;20060;-80
2021/09/04 05:58:24;;;;;;;13.25;8.57;;;;;;;12.51;89.67;93305.84;5050627;28;20041;-81
2021/09/04 06:00:53;;;;;;;12.32;8.15;;;;;;;12.62;88.22;93314.66;5050395;28;20088;-80
2021/09/04 06:03:20;;;;;;;16.17;9.68;;;;;;;12.62;91.53;93321.56;5050168;28;20136;-81
2021/09/04 06:05:47;;;;;;;15.55;10.32;;;;;;;12.63;92.79;93334.25;5050467;28;20056;-81
2021/09/04 06:08:14;;;;;;;16.77;9.93;;;;;;;12.75;91.59;93313.69;5050470;28;20049;-81
2021/09/04 06:10:41;;;;;;;15.15;10.55;;;;;;;12.54;91.63;93308.00;5050062;28;20048;-81
2021/09/04 06:13:08;;;;;;;23.80;12.07;;;;;;;12.49;92.50;93325.13;5050293;28;20421;-81
2021/09/04 06:15:34;;;;;;;23.50;11.05;;;;;;;12.69;92.47;93320.47;5050306;28;20053;-82
2021/09/04 06:18:03;;;;;;;18.90;11.18;;;;;;;12.73;91.27;93332.94;5054867;28;20257;-80
2021/09/04 06:20:30;;;;;;;19.58;10.52;;;;;;;12.64;90.78;93332.47;5070100;28;20051;-81
2021/09/04 06:22:57;;;;;;;17.90;10.30;;;;;;;12.95;90.80;93340.94;5069812;28;20577;-81
2021/09/04 06:25:23;;;;;;;16.15;8.57;;;;;;;13.21;88.22;93326.09;5069957;28;20058;-81
2021/09/04 06:27:50;;;;;;;15.15;9.77;;;;;;;13.03;88.15;93329.53;5069917;28;20142;-80
2021/09/04 06:30:17;;;;;;;15.68;8.55;;;;;;;13.20;89.63;93324.53;5069467;28;20049;-80
2021/09/04 06:32:44;;;;;;;16.10;9.32;;;;;;;13.19;88.44;93295.34;5069422;28;20060;-80
2021/09/04 06:35:12;;;;;;;12.25;7.72;;;;;;;13.48;86.55;93313.56;5069916;28;20452;-80
2021/09/04 06:37:39;;;;;;;12.38;7.78;;;;;;;13.65;85.56;93312.88;5069242;28;20044;-80
2021/09/04 06:40:07;;;;;;;13.73;8.52;;;;;;;13.70;85.73;93289.75;5069726;28;20044;-82
2021/09/04 06:42:34;;;;;;;13.30;8.68;;;;;;;13.99;84.18;93283.88;5069342;28;20049;-80
2021/09/04 06:45:01;;;;;;;14.30;7.90;;;;;;;14.49;82.98;93323.81;5069159;28;20052;-81
2021/09/04 06:47:28;;;;;;;12.13;7.60;;;;;;;14.67;79.31;93328.00;5067993;28;20053;-82
2021/09/04 06:49:55;;;;;;;15.20;7.57;;;;;;;14.96;79.06;93324.66;5067895;28;20131;-81
2021/09/04 06:52:23;;;;;;;12.95;7.88;;;;;;;15.18;76.82;93324.72;5069239;28;20044;-81
2021/09/04 06:54:50;;;;;;;10.07;6.28;;;;;;;15.35;74.87;93322.16;5069804;28;20048;-81
2021/09/04 06:57:17;;;;;;;13.52;7.35;;;;;;;15.50;74.34;93315.59;5069763;28;20095;-82
2021/09/04 06:59:44;;;;;;;16.13;6.63;;;;;;;15.88;72.45;93315.88;5069225;28;20514;-81
2021/09/04 07:02:10;;;;;;;12.65;5.90;;;;;;;15.88;72.38;93311.47;5069041;28;20094;-81
2021/09/04 07:04:37;;;;;;;9.52;5.65;;;;;;;15.72;69.73;93297.53;5068862;28;20051;-81
2021/09/04 07:07:05;;;;;;;10.07;5.32;;;;;;;16.16;70.94;93290.84;5069397;28;20052;-81
2021/09/04 07:09:34;;;;;;;9.50;6.03;;;;;;;16.60;68.05;93308.13;5069335;28;20056;-81
2021/09/04 07:12:01;;;;;;;14.13;6.28;;;;;;;16.55;67.95;93243.25;5069090;28;20115;-82
2021/09/04 07:14:28;;;;;;;16.48;9.73;;;;;;;16.99;65.80;93306.41;5069381;28;20138;-82
2021/09/04 07:16:55;;;;;;;20.30;8.48;;;;;;;16.89;66.59;93289.72;5068871;28;20044;-81
2021/09/04 07:19:22;;;;;;;13.90;8.23;;;;;;;16.97;67.36;93285.88;5085475;28;20055;-80
2021/09/04 07:21:48;;;;;;;12.70;7.15;;;;;;;17.30;67.25;93252.94;5089348;28;20048;-82
2021/09/04 07:24:15;;;;;;;13.43;7.18;;;;;;;17.54;65.28;93239.56;5089105;28;20135;-83
2021/09/04 07:26:44;;;;;;;10.45;6.13;;;;;;;17.57;62.68;93304.00;5089162;28;20052;-84
2021/09/04 07:29:11;;;;;;;10.77;6.00;;;;;;;17.96;62.27;93304.72;5089502;28;20454;-84
2021/09/04 07:31:38;;;;;;;11.65;6.55;;;;;;;18.12;62.59;93290.78;5086933;28;20048;-85
2021/09/04 07:34:05;;;;;;;14.07;6.05;;;;;;;17.75;61.13;93271.63;5069257;28;20064;-84
2021/09/04 07:36:32;;;;;;;11.63;6.22;;;;;;;18.06;62.72;93312.59;5068708;28;20497;-83
2021/09/04 07:38:59;;;;;;;13.02;6.18;;;;;;;17.76;62.20;93255.00;5068936;28;20139;-83
2021/09/04 07:41:26;;;;;;;11.00;6.38;;;;;;;18.28;62.17;93311.63;5068916;28;20478;-83
2021/09/04 07:43:54;;;;;;;11.27;6.45;;;;;;;18.16;62.55;93286.63;5068931;28;20059;-83
2021/09/04 07:46:21;;;;;;;12.23;6.28;;;;;;;18.25;62.17;93315.53;5069673;28;20520;-82
2021/09/04 07:48:50;;;;;;;9.95;5.78;;;;;;;18.05;60.44;93246.00;5069292;28;20052;-84
2021/09/04 07:51:17;;;;;;;15.65;7.72;;;;;;;18.70;59.49;93297.69;5069241;28;20056;-83
2021/09/04 07:53:45;;;;;;;12.93;6.97;;;;;;;18.83;60.73;93296.41;5077778;28;20090;-83
2021/09/04 07:56:11;;;;;;;14.88;8.18;;;;;;;18.99;58.45;93313.84;5089947;28;20465;-83
2021/09/04 07:58:38;;;;;;;12.05;7.13;;;;;;;19.05;60.08;93263.38;5092655;28;20142;-84
2021/09/04 08:01:07;;;;;;;11.07;6.30;;;;;;;19.30;58.04;93293.06;5092676;28;20052;-83
2021/09/04 08:03:34;;;;;;;10.55;6.38;;;;;;;19.24;58.46;93320.91;5092660;28;20558;-83
2021/09/04 08:06:01;;;;;;;13.25;6.60;;;;;;;18.87;58.69;93281.03;5092389;28;20548;-83
2021/09/04 08:08:28;;;;;;;10.45;5.85;;;;;;;19.37;59.32;93311.78;5092462;28;20672;-84
2021/09/04 08:10:55;;;;;;;9.85;5.70;;;;;;;19.33;58.16;93313.34;5092738;28;20071;-83
2021/09/04 08:13:22;;;;;;;8.80;5.55;;;;;;;19.35;58.53;93317.25;5093073;28;20048;-83
2021/09/04 08:15:49;;;;;;;8.32;5.53;;;;;;;19.39;59.15;93329.78;5092339;28;20044;-84
2021/09/04 08:18:18;;;;;;;10.55;6.05;;;;;;;19.08;58.83;93255.06;5088753;28;20051;-83
2021/09/04 08:20:45;;;;;;;9.05;5.03;;;;;;;19.78;57.21;93274.47;5074401;28;20068;-83
2021/09/04 08:23:12;;;;;;;7.40;4.25;;;;;;;19.68;53.56;93266.69;5072178;28;20048;-84
2021/09/04 08:25:39;;;;;;;9.88;5.00;;;;;;;19.88;54.08;93318.75;5072714;28;20048;-82
2021/09/04 08:28:07;;;;;;;9.05;5.47;;;;;;;19.98;54.28;93317.16;5072878;28;20048;-84
2021/09/04 08:30:34;;;;;;;9.77;4.45;;;;;;;19.99;53.85;93295.25;5073025;28;20489;-84
2021/09/04 08:33:02;;;;;;;14.23;6.05;;;;;;;20.08;52.63;93257.16;5072509;28;20048;-84
2021/09/04 08:35:30;;;;;;;10.02;4.75;;;;;;;20.90;50.74;93317.03;5072676;28;20080;-82
2021/09/04 08:37:57;;;;;;;9.80;5.50;;;;;;;20.89;49.98;93295.38;5064043;28;20051;-83
2021/09/04 08:40:24;;;;;;;9.07;4.85;;;;;;;20.86;49.65;93279.44;5068228;28;20057;-83
2021/09/04 08:42:52;;;;;;;7.60;4.22;;;;;;;20.50;48.74;93255.13;5066589;28;20053;-83
2021/09/04 08:45:19;;;;;;;8.88;4.03;;;;;;;20.16;48.92;93263.66;5066155;28;20045;-82
2021/09/04 08:47:51;;;;;;;5.72;4.22;;;;;;;20.90;49.49;93298.75;5072080;28;20060;-84
2021/09/04 08:50:19;;;;;;;7.05;4.28;;;;;;;20.59;47.80;93331.00;5072091;28;20420;-84
2021/09/04 08:52:47;;;;;;;6.18;3.40;;;;;;;19.89;48.43;93276.00;5072457;28;20119;-83
2021/09/04 08:55:14;;;;;;;7.07;3.65;;;;;;;20.81;46.92;93325.41;5072209;28;20052;-83
2021/09/04 08:57:41;;;;;;;7.50;4.53;;;;;;;21.44;49.40;93317.16;5072846;28;20058;-85
2021/09/04 09:00:09;;;;;;;9.45;4.05;;;;;;;21.59;47.40;93324.06;5071461;28;20501;-84
2021/09/04 09:02:36;;;;;;;7.63;3.83;;;;;;;21.13;49.22;93333.06;5071526;28;20869;-85
2021/09/04 09:05:06;;;;;;;13.30;5.45;;;;;;;21.62;50.32;93321.69;5071674;28;20052;-83
2021/09/04 09:07:52;;;;;;;9.52;4.78;;;;;;;22.07;49.30;93281.50;5071503;28;20044;-81
2021/09/04 09:10:37;;;;;;;10.23;4.88;;;;;;;22.50;46.79;93299.00;5071218;28;20094;-81
2021/09/04 09:13:04;;;;;;;9.05;4.43;;;;;;;23.17;47.26;93325.34;5071391;28;20386;-81
2021/09/04 09:15:34;;;;;;;9.75;5.60;;;;;;;23.54;46.96;93299.34;5071420;28;20056;-81
2021/09/04 09:18:03;;;;;;;7.57;4.40;;;;;;;23.92;44.16;93299.19;5076738;28;20048;-81
2021/09/04 09:20:31;;;;;;;7.25;3.92;;;;;;;24.34;43.75;93306.31;5091347;28;20979;-81
2021/09/04 09:23:07;;;;;;;7.18;3.97;;;;;;;24.41;41.99;93309.31;5091239;28;20048;-85
2021/09/04 09:25:34;;;;;;;6.13;3.90;;;;;;;24.22;42.46;93298.94;5091445;28;20063;-84
2021/09/04 09:28:03;;;;;;;5.35;3.65;;;;;;;24.35;42.33;93297.38;5091380;28;20411;-82
2021/09/04 09:30:35;;;;;;;6.40;3.85;;;;;;;24.48;41.80;93288.69;5091306;28;20443;-83
2021/09/04 09:33:02;;;;;;;6.15;4.05;;;;;;;23.71;41.60;93302.22;5077248;28;21325;-83
2021/09/04 09:35:37;;;;;;;6.28;3.97;;;;;;;24.13;40.86;93294.38;5070783;28;20534;-82
2021/09/04 09:38:07;;;;;;;5.60;3.60;;;;;;;24.01;40.70;93280.94;5070703;28;20048;-82
2021/09/04 09:40:35;;;;;;;6.57;3.53;;;;;;;22.93;43.00;93282.50;5071003;28;20135;-80
2021/09/04 09:43:02;;;;;;;6.97;3.72;;;;;;;22.28;43.67;93270.78;5070744;28;20059;-81
2021/09/04 09:45:43;;;;;;;6.35;3.58;;;;;;;22.24;45.75;93267.97;5070225;28;20044;-82
2021/09/04 09:48:11;;;;;;;6.97;4.10;;;;;;;22.99;43.90;93267.47;5070922;28;20052;-81
2021/09/04 09:50:38;;;;;;;8.10;3.88;;;;;;;22.86;42.24;93237.53;5070516;28;20055;-82
2021/09/04 09:53:07;;;;;;;7.78;3.65;;;;;;;23.56;40.73;93261.28;5070771;28;20075;-81
2021/09/04 09:55:34;;;;;;;4.35;3.20;;;;;;;22.88;41.38;93224.94;5070382;28;20056;-82
2021/09/04 09:58:01;;;;;;;5.90;3.35;;;;;;;22.63;42.89;93254.91;5070431;28;20315;-82
2021/09/04 10:00:30;;;;;;;5.90;3.50;;;;;;;22.37;42.10;93266.50;5070319;28;20158;-81
2021/09/04 10:03:02;;;;;;;5.57;3.83;;;;;;;21.90;43.87;93266.28;5070004;28;20501;-82
2021/09/04 10:05:30;;;;;;;7.00;3.80;;;;;;;21.73;43.76;93240.56;5070365;28;20052;-82
2021/09/04 10:07:59;;;;;;;6.03;3.63;;;;;;;22.02;42.69;93258.81;5069881;28;20048;-81
2021/09/04 10:10:29;;;;;;;5.93;3.85;;;;;;;22.03;41.89;93262.97;5069897;28;20060;-82
2021/09/04 10:12:57;;;;;;;4.85;3.83;;;;;;;22.64;43.40;93253.84;5070269;28;20059;-81
2021/09/04 10:15:26;;;;;;;8.63;4.00;;;;;;;22.86;41.66;93260.34;5070155;28;20049;-81
2021/09/04 10:17:56;;;;;;;7.50;3.63;;;;;;;22.33;40.64;93257.63;5074066;28;20454;-81
2021/09/04 10:20:25;;;;;;;6.43;3.80;;;;;;;22.61;42.77;93255.19;5089875;28;20044;-81
2021/09/04 10:22:55;;;;;;;6.35;3.97;;;;;;;22.21;41.46;93238.97;5090280;28;20074;-82
2021/09/04 10:25:22;;;;;;;7.47;4.35;;;;;;;22.59;42.84;93249.44;5090263;28;20044;-82
2021/09/04 10:27:51;;;;;;;6.38;4.22;;;;;;;22.25;40.95;93247.78;5089957;28;20052;-81
2021/09/04 10:30:27;;;;;;;4.72;3.38;;;;;;;21.81;41.69;93200.75;5089869;28;20044;-81
2021/09/04 10:33:06;;;;;;;6.03;4.10;;;;;;;21.97;43.37;93198.72;5076596;28;20059;-81
2021/09/04 10:35:42;;;;;;;4.53;3.40;;;;;;;22.28;42.29;93236.78;5069147;28;20082;-82
2021/09/04 10:38:40;;;;;;;5.50;3.70;;;;;;;22.02;41.68;93235.25;5069427;28;20044;-81
2021/09/04 10:41:24;;;;;;;9.73;4.93;;;;;;;22.21;41.55;93208.34;5069714;28;20052;-80
2021/09/04 10:43:57;;;;;;;9.98;4.80;;;;;;;22.88;43.22;93211.06;5069625;28;20610;-81
2021/09/04 10:46:25;;;;;;;8.30;4.10;;;;;;;23.56;40.43;93223.84;5069314;28;20506;-82
2021/09/04 10:49:01;;;;;;;6.35;3.80;;;;;;;24.05;40.80;93218.94;5069784;28;20052;-80
2021/09/04 10:51:48;;;;;;;6.88;3.67;;;;;;;24.48;39.81;93214.41;5069535;28;20493;-80
2021/09/04 10:54:39;;;;;;;5.78;3.40;;;;;;;25.04;38.41;93227.34;5065706;28;20053;-80
2021/09/04 10:57:16;;;;;;;10.45;3.60;;;;;;;25.28;36.03;93227.00;5067123;28;20052;-81
2021/09/04 11:00:06;;;;;;;5.57;3.70;;;;;;;24.13;37.22;93205.16;5069516;28;20056;-81
2021/09/04 11:02:48;;;;;;;33.35;8.90;;;;;;;24.22;38.27;93223.63;5069417;28;20402;-81
2021/09/04 11:05:50;;;;;;;7.05;3.53;;;;;;;24.14;38.47;93229.53;5069343;28;20055;-81
2021/09/04 11:08:35;;;;;;;8.82;3.85;;;;;;;24.37;37.59;93227.75;5069044;28;20052;-81
2021/09/04 11:11:15;;;;;;;5.00;2.95;;;;;;;24.34;38.47;93222.31;5068998;28;20051;-82
2021/09/04 11:13:43;;;;;;;7.80;3.33;;;;;;;24.25;38.26;93220.38;5069138;28;20079;-81
2021/09/04 11:16:32;;;;;;;4.78;3.30;;;;;;;24.91;37.96;93223.69;5068958;28;20044;-81
2021/09/04 11:19:14;;;;;;;6.35;3.90;;;;;;;25.37;36.49;93192.88;5082086;28;20136;-80
2021/09/04 11:21:52;;;;;;;8.27;3.70;;;;;;;25.74;36.44;93205.84;5089240;28;20135;-81
2021/09/04 11:24:21;;;;;;;6.10;3.50;;;;;;;25.17;35.31;93223.06;5077598;28;20059;-82
2021/09/04 11:26:49;;;;;;;8.15;3.95;;;;;;;23.89;38.39;93226.34;5057161;28;20464;-81
2021/09/04 11:29:16;;;;;;;9.02;3.88;;;;;;;24.34;38.15;93236.22;5049620;28;20382;-82
2021/09/04 11:31:57;;;;;;;6.65;3.40;;;;;;;23.89;37.19;93210.63;5052834;28;20497;-80
2021/09/04 11:34:49;;;;;;;6.65;3.72;;;;;;;23.92;39.08;93214.50;5073146;28;20481;-81
2021/09/04 11:37:23;;;;;;;4.95;3.40;;;;;;;23.48;38.00;93209.56;5060920;28;20047;-81
2021/09/04 11:39:52;;;;;;;6.43;3.23;;;;;;;23.75;38.94;93208.75;5062218;28;20041;-81